Main page
Satellite images 10-day forecastsClimateMarine weather Cyclones Lightning AirportsFAQ Newsletter About
Weather : Europe Africa North America South America Asia Australia-Oceania Others
Languages Contact

Baia Mare, Romania

Baia Mare Airport

latitude: 47-40N, longitude: 023-35E, elevation: 218 m


METAR: LRBM 010400Z 28004KT 250V310 9999 SCT046 06/04 Q1003 R10/19//95
TAF: LRBM 010200Z 0103/0112 29008KT 9999 BKN030 TEMPO 0103/0106 3000 BR BKN005

Time: 07:31 (04:31 UTC)

Current weather observation

The report was made 31 minutes ago, at 04:00 UTC
Wind 4 kt from the West, varying between West/Southwest and Northwest
Temperature 6°C
Humidity 87%
Pressure 1003 hPa
Visibility 10 km or more
Scattered clouds at a height of 4600 ft

Change units

Forecast

The report was made 2 hours and 31 minutes ago, at 02:00 UTC
Forecast valid from 01 at 03 UTC to 01 at 12 UTC
Wind 8 kt from the West/Northwest
Visibility 10 km or more
Broken clouds at a height of 3000 ft
Temporary
from 01 at 03 UTC to 01 at 06 UTC
Visibility: 3000 m
Broken clouds at a height of 500 ft
mist
The information on this site is subject to a disclaimer
Weather : Europe Africa North America South America Asia Australia-Oceania Others
Satellite images 10-day forecastsClimateMarine weather Cyclones Lightning AirportsFAQ Languages Contact Newsletter About